Friday, October 19, 2018, 9:56 PM GMT
Back to Local

CYYB, North Bay, Ont.

Location: , , Canada Lat: 46.35
Local Time: 9:56 PM GMT (21:56 GMT) Lon: -79.433
Time Zone: GMT Elev: 1174 ft

Show me the last for .
Show Decoded

2018-10-19 21:00 METAR CYYB 192100Z 24012G20KT 30SM -RA SCT030 BKN065 OVC087 10/07 A2962 RMK
                 SC3SC3AC2 PRESFR SLP041 DENSITY ALT 1300FT =
2018-10-19 20:51 METAR CYYB 192051Z 23012G22KT 210V280 30SM -RA SCT029 OVC065 10/07 A2963 RMK
                 SC3SC5 SLP043 DENSITY ALT 1300FT =
2018-10-19 20:00 METAR CYYB 192000Z 25012G20KT 30SM FEW020 SCT065 OVC110 11/07 A2964 RMK
                 CU1SC2AC5 SLP047 DENSITY ALT 1400FT =
2018-10-19 19:00 METAR CYYB 191900Z 24012G19KT 30SM FEW020 BKN130 OVC160 12/08 A2967 RMK
                 CF1AC6AC2 CF TR SLP055 DENSITY ALT 1500FT =
2018-10-19 18:00 METAR CYYB 191800Z 22013G22KT 30SM FEW020 SCT120 OVC190 12/08 A2969 RMK
                 CF1AC4AC4 CF TR SLP065 DENSITY ALT 1500FT =
2018-10-19 17:00 METAR CYYB 191700Z 24011G21KT 210V270 30SM FEW024 BKN160 13/07 A2974 RMK CF1AC7
                 CF TR SLP080 DENSITY ALT 1500FT =
2018-10-19 16:00 METAR CYYB 191600Z 23011G19KT 30SM FEW022 SCT090 13/07 A2977 RMK CF1AC4 CF TR
                 SLP089 DENSITY ALT 1400FT =
2018-10-19 15:00 METAR CYYB 191500Z 23010G19KT 200V260 30SM FEW015 FEW090 SCT180 11/06 A2979 RMK
                 CF1AC1AC2 CF TR PRESFR SLP097 =
2018-10-19 14:00 METAR CYYB 191400Z 22011G22KT 30SM FEW012 FEW180 09/06 A2982 RMK CF1CI2 CF TR
                 SLP109 =
2018-10-19 13:00 METAR CYYB 191300Z 23008G16KT 30SM FEW140 08/05 A2984 RMK AC1 SLP116 =
2018-10-19 12:00 METAR CYYB 191200Z 23005KT 30SM FEW140 06/04 A2986 RMK AC1 SLP126 =
2018-10-19 11:00 METAR CYYB 191100Z 25007KT 15SM FEW120 06/03 A2988 RMK AC1 SLP132 =
2018-10-19 10:00 METAR CYYB 191000Z AUTO 24007KT 9SM CLR 06/03 A2990 RMK SLP140 =
2018-10-19 09:00 METAR CYYB 190900Z AUTO 25006KT 9SM CLR 06/03 A2992 RMK SLP147 =
2018-10-19 08:00 METAR CYYB 190800Z AUTO 25008G18KT 220V280 9SM CLR 06/03 A2994 RMK SLP152 =
2018-10-19 07:00 METAR CYYB 190700Z AUTO 26007G18KT 9SM CLR 06/03 A2996 RMK SLP159 =
2018-10-19 06:00 METAR CYYB 190600Z AUTO 26009G21KT 9SM SCT200 06/03 A2997 RMK SLP163 =
2018-10-19 05:00 METAR CYYB 190500Z AUTO 25007G16KT 9SM FEW190 05/03 A2997 RMK SLP165 =
2018-10-19 04:00 METAR CYYB 190400Z AUTO 24008KT 9SM BKN190 05/02 A2998 RMK SLP170 =
2018-10-19 03:00 METAR CYYB 190300Z AUTO 24010G16KT 9SM CLR 04/02 A3001 RMK SLP180 =
2018-10-19 02:00 METAR CYYB 190200Z 24010G16KT 15SM FEW023 BKN170 03/01 A3004 RMK SC2AC3 LAST
                 STFD OBS/NEXT 191100 UTC SLP191 =
2018-10-19 01:00 METAR CYYB 190100Z 23011G20KT 15SM SCT025 BKN140 03/00 A3005 RMK SC4AC2 SLP197 =
2018-10-19 00:00 METAR CYYB 190000Z 23014G28KT 15SM SCT025 BKN140 03/M01 A3006 RMK SC3AC3 SLP200
                 =
2018-10-18 23:00 METAR CYYB 182300Z 24017G25KT 15SM FEW027 BKN140 03/M02 A3009 RMK CF2AC4 SLP209
                 =
2018-10-18 22:00 METAR CYYB 182200Z 24017G26KT 30SM SCT031 BKN170 03/M02 A3010 RMK CU4AC2 SLP215
                 =

Support USWX by starting your Amazon purchase here.